createdAt,value
2022-12-08T00:00:59.945Z,64.06
2022-12-08T00:03:26.611Z,64.41
2022-12-08T00:05:52.992Z,64.29
2022-12-08T00:08:19.317Z,63.09
2022-12-08T00:10:49.991Z,62.72
2022-12-08T00:13:16.450Z,62.78
2022-12-08T00:15:42.695Z,62.43
2022-12-08T00:18:08.967Z,62.63
2022-12-08T00:20:35.228Z,62.53
2022-12-08T00:23:01.500Z,63.02
2022-12-08T00:25:27.860Z,62.69
2022-12-08T00:27:54.117Z,62.37
2022-12-08T00:30:20.388Z,62.37
2022-12-08T00:32:46.666Z,62.56
2022-12-08T00:35:12.924Z,62.76
2022-12-08T00:37:39.187Z,62.85
2022-12-08T00:40:05.722Z,62.55
2022-12-08T00:42:32.211Z,62.66
2022-12-08T00:44:58.454Z,62.16
2022-12-08T00:47:25.186Z,62.58
2022-12-08T00:49:51.575Z,62.70
2022-12-08T00:52:17.849Z,62.77
2022-12-08T00:54:44.097Z,63.20
2022-12-08T00:57:10.337Z,63.01
2022-12-08T00:59:36.587Z,63.05
2022-12-08T01:02:02.843Z,62.87
2022-12-08T01:04:29.134Z,63.33
2022-12-08T01:06:55.406Z,63.62
2022-12-08T01:09:21.665Z,63.43
2022-12-08T01:11:47.913Z,63.61
2022-12-08T01:14:14.161Z,64.05
2022-12-08T01:16:40.462Z,64.30
2022-12-08T01:19:06.738Z,63.63
2022-12-08T01:21:32.998Z,63.61
2022-12-08T01:23:59.253Z,63.86
2022-12-08T01:26:25.506Z,64.31
2022-12-08T01:28:51.751Z,63.92
2022-12-08T01:31:18.114Z,63.66
2022-12-08T01:33:44.439Z,63.69
2022-12-08T01:36:10.675Z,63.52
2022-12-08T01:38:36.929Z,62.80
2022-12-08T01:41:03.178Z,63.72
2022-12-08T01:43:29.427Z,63.68
2022-12-08T01:45:55.783Z,64.17
2022-12-08T01:48:22.091Z,64.35
2022-12-08T01:50:48.404Z,63.61
2022-12-08T01:53:14.666Z,63.14
2022-12-08T01:55:40.927Z,63.36
2022-12-08T01:58:07.206Z,62.99
2022-12-08T02:00:33.455Z,62.97
2022-12-08T02:02:59.779Z,63.85
2022-12-08T02:05:26.076Z,63.62
2022-12-08T02:07:52.402Z,63.44
2022-12-08T02:10:18.726Z,63.27
2022-12-08T02:12:45.016Z,63.76
2022-12-08T02:15:11.278Z,63.76
2022-12-08T02:17:37.518Z,63.89
2022-12-08T02:20:04.147Z,63.64
2022-12-08T02:22:30.581Z,63.82
2022-12-08T02:24:56.831Z,63.77
2022-12-08T02:27:23.085Z,63.75
2022-12-08T02:29:49.452Z,64.00
2022-12-08T02:32:15.718Z,64.17
2022-12-08T02:34:41.974Z,63.94
2022-12-08T02:37:08.250Z,63.97
2022-12-08T02:39:34.497Z,63.73
2022-12-08T02:42:00.738Z,63.78
2022-12-08T02:44:26.997Z,63.67
2022-12-08T02:46:53.253Z,63.77
2022-12-08T02:49:19.513Z,63.44
2022-12-08T02:51:45.763Z,62.50
2022-12-08T02:54:12.032Z,63.10
2022-12-08T02:56:38.282Z,63.12
2022-12-08T02:59:04.533Z,62.96
2022-12-08T03:01:30.952Z,62.85
2022-12-08T03:03:57.278Z,63.43
2022-12-08T03:06:23.523Z,63.44
2022-12-08T03:08:49.785Z,63.41
2022-12-08T03:11:16.041Z,63.73
2022-12-08T03:13:42.324Z,63.31
2022-12-08T03:16:08.642Z,63.23
2022-12-08T03:18:34.919Z,63.39
2022-12-08T03:21:01.192Z,63.19
2022-12-08T03:23:27.448Z,63.39
2022-12-08T03:25:53.732Z,63.35
2022-12-08T03:28:20.040Z,63.30
2022-12-08T03:30:46.330Z,63.97
2022-12-08T03:33:12.625Z,63.75
2022-12-08T03:35:38.870Z,64.05
2022-12-08T03:38:05.125Z,64.61
2022-12-08T03:40:31.375Z,64.36
2022-12-08T03:42:57.624Z,64.68
2022-12-08T03:45:23.900Z,64.43
2022-12-08T03:47:50.157Z,64.04
2022-12-08T03:50:16.426Z,64.17
2022-12-08T03:52:42.672Z,64.87
2022-12-08T03:55:08.914Z,64.92
2022-12-08T03:57:35.176Z,64.51
2022-12-08T04:00:01.595Z,64.74
2022-12-08T04:02:28.114Z,64.59
2022-12-08T04:04:54.406Z,64.34
2022-12-08T04:07:20.677Z,64.37
2022-12-08T04:09:46.918Z,64.93
2022-12-08T04:12:13.182Z,64.78
2022-12-08T04:14:39.425Z,64.96
2022-12-08T04:17:05.715Z,64.88
2022-12-08T04:19:31.991Z,64.90
2022-12-08T04:21:58.262Z,64.94
2022-12-08T04:24:24.510Z,65.17
2022-12-08T04:26:50.781Z,65.38
2022-12-08T04:29:17.092Z,65.01
2022-12-08T04:31:43.404Z,65.02
2022-12-08T04:34:09.714Z,65.06
2022-12-08T04:36:35.969Z,64.57
2022-12-08T04:39:02.224Z,64.35
2022-12-08T04:41:28.507Z,64.70
2022-12-08T04:43:54.769Z,64.97
2022-12-08T04:46:21.129Z,64.79
2022-12-08T04:48:47.442Z,64.56
2022-12-08T04:51:13.689Z,64.60
2022-12-08T04:53:44.856Z,64.43
2022-12-08T04:56:12.645Z,64.66
2022-12-08T04:58:38.935Z,64.21
2022-12-08T05:01:05.250Z,64.38
2022-12-08T05:03:31.549Z,64.22
2022-12-08T05:05:57.811Z,64.10
2022-12-08T05:08:24.093Z,64.05
2022-12-08T05:10:50.405Z,64.01
2022-12-08T05:13:16.665Z,64.14
2022-12-08T05:15:42.933Z,64.53
2022-12-08T05:18:09.193Z,64.98
2022-12-08T05:20:35.454Z,64.90
2022-12-08T05:23:01.706Z,64.60
2022-12-08T05:25:27.978Z,64.54
2022-12-08T05:28:06.146Z,64.26
2022-12-08T05:30:37.877Z,63.80
2022-12-08T05:33:04.156Z,64.01
2022-12-08T05:35:30.393Z,64.24
2022-12-08T05:37:56.638Z,63.99
2022-12-08T05:40:22.901Z,63.66
2022-12-08T05:42:49.171Z,63.47
2022-12-08T05:45:15.410Z,63.50
2022-12-08T05:47:41.665Z,63.58
2022-12-08T05:50:07.988Z,63.82
2022-12-08T05:52:34.279Z,63.64
2022-12-08T05:55:00.522Z,63.86
2022-12-08T05:57:26.761Z,64.31
2022-12-08T05:59:53.057Z,63.99
2022-12-08T06:02:19.413Z,64.29
2022-12-08T06:04:45.707Z,64.36
2022-12-08T06:07:16.074Z,64.43
2022-12-08T06:09:42.579Z,63.59
2022-12-08T06:12:08.878Z,63.93
2022-12-08T06:14:35.140Z,64.79
2022-12-08T06:17:01.426Z,64.66
2022-12-08T06:19:27.767Z,64.65
2022-12-08T06:21:54.045Z,64.63
2022-12-08T06:24:20.306Z,64.49
2022-12-08T06:26:46.546Z,64.59
2022-12-08T06:29:12.804Z,64.33
2022-12-08T06:31:39.151Z,64.69
2022-12-08T06:34:05.525Z,64.14
2022-12-08T06:36:31.785Z,64.63
2022-12-08T06:38:58.040Z,63.98
2022-12-08T06:41:24.304Z,64.60
2022-12-08T06:43:50.558Z,65.24
2022-12-08T06:46:16.874Z,65.72
2022-12-08T06:48:43.225Z,66.06
2022-12-08T06:51:09.481Z,65.17
2022-12-08T06:53:35.734Z,64.02
2022-12-08T06:56:02.094Z,64.49
2022-12-08T06:58:28.361Z,63.19
2022-12-08T07:00:54.819Z,62.88
2022-12-08T07:03:21.342Z,63.06
2022-12-08T07:05:47.614Z,63.53
2022-12-08T07:08:13.975Z,63.73
2022-12-08T07:10:40.329Z,63.69
2022-12-08T07:13:06.608Z,63.72
2022-12-08T07:15:32.858Z,63.72
2022-12-08T07:18:00.313Z,64.04
2022-12-08T07:20:26.991Z,64.25
2022-12-08T07:22:53.245Z,64.86
2022-12-08T07:25:19.501Z,64.60
2022-12-08T07:27:45.764Z,64.39
2022-12-08T07:30:12.015Z,64.36
2022-12-08T07:32:38.274Z,64.45
2022-12-08T07:35:04.544Z,64.10
2022-12-08T07:37:30.801Z,63.98
2022-12-08T07:39:57.057Z,64.25
2022-12-08T07:42:23.306Z,64.00
2022-12-08T07:44:49.578Z,64.08
2022-12-08T07:47:15.833Z,64.08
2022-12-08T07:49:42.107Z,63.70
2022-12-08T07:52:08.369Z,63.95
2022-12-08T07:54:34.618Z,63.96
2022-12-08T07:57:00.885Z,64.29
2022-12-08T07:59:27.141Z,63.78
2022-12-08T08:02:13.462Z,63.42
2022-12-08T08:04:39.688Z,63.61
2022-12-08T08:07:06.026Z,63.12
2022-12-08T08:09:32.286Z,63.46
2022-12-08T08:12:29.020Z,63.55
2022-12-08T08:14:44.751Z,65.12
2022-12-08T08:17:11.145Z,64.86
2022-12-08T08:19:37.513Z,64.71
2022-12-08T08:22:03.775Z,64.43
2022-12-08T08:24:30.017Z,64.27
2022-12-08T08:26:56.275Z,64.33
2022-12-08T08:29:22.522Z,64.49
2022-12-08T08:31:48.801Z,65.05
2022-12-08T08:34:15.054Z,64.64
2022-12-08T08:36:41.411Z,64.22
2022-12-08T08:39:07.675Z,65.03
2022-12-08T08:41:33.945Z,64.94
2022-12-08T08:44:00.207Z,65.02
2022-12-08T08:46:26.567Z,65.02
2022-12-08T08:48:52.850Z,64.62
2022-12-08T08:51:19.114Z,64.86
2022-12-08T08:53:45.390Z,63.94
2022-12-08T08:56:11.653Z,63.91
2022-12-08T08:58:37.912Z,64.36
2022-12-08T09:01:04.184Z,63.83
2022-12-08T09:03:30.434Z,62.97
2022-12-08T09:05:56.765Z,62.94
2022-12-08T09:08:23.193Z,62.89
2022-12-08T09:10:49.505Z,62.11
2022-12-08T09:13:15.746Z,61.85
2022-12-08T09:15:42.073Z,60.71
2022-12-08T09:18:08.354Z,60.42
2022-12-08T09:20:34.594Z,60.56
2022-12-08T09:23:00.869Z,60.62
2022-12-08T09:25:27.115Z,60.81
2022-12-08T09:27:53.398Z,61.39
2022-12-08T09:30:19.650Z,60.90
2022-12-08T09:32:45.895Z,60.14
2022-12-08T09:35:12.158Z,59.88
2022-12-08T09:37:38.406Z,60.62
2022-12-08T09:40:04.923Z,60.11
2022-12-08T09:42:31.451Z,59.98
2022-12-08T09:44:57.694Z,58.68
2022-12-08T09:47:23.940Z,58.76
2022-12-08T09:49:50.213Z,58.42
2022-12-08T09:52:16.473Z,58.79
2022-12-08T09:54:42.771Z,58.97
2022-12-08T09:57:09.044Z,57.17
2022-12-08T09:59:35.309Z,57.00
2022-12-08T10:02:01.672Z,57.28
2022-12-08T10:04:27.985Z,58.45
2022-12-08T10:06:54.230Z,57.87
2022-12-08T10:09:23.006Z,58.02
2022-12-08T10:11:49.400Z,56.92
2022-12-08T10:14:15.644Z,57.60
2022-12-08T10:16:41.936Z,57.23
2022-12-08T10:19:08.238Z,56.95
2022-12-08T10:21:34.506Z,56.90
2022-12-08T10:24:00.758Z,56.52
2022-12-08T10:26:27.010Z,56.54
2022-12-08T10:28:53.256Z,56.06
2022-12-08T10:31:19.554Z,56.76
2022-12-08T10:33:45.871Z,57.58
2022-12-08T10:36:12.134Z,57.74
2022-12-08T10:38:38.401Z,56.65
2022-12-08T10:41:04.650Z,55.91
2022-12-08T10:43:30.926Z,56.57
2022-12-08T10:45:57.188Z,57.63
2022-12-08T10:48:23.434Z,57.50
2022-12-08T10:50:49.687Z,58.89
2022-12-08T10:53:15.950Z,55.44
2022-12-08T10:55:42.213Z,55.83
2022-12-08T10:58:08.475Z,55.75
2022-12-08T11:00:34.864Z,56.35
2022-12-08T11:03:01.216Z,55.79
2022-12-08T11:05:27.494Z,56.65
2022-12-08T11:07:53.813Z,56.09
2022-12-08T11:10:20.175Z,54.44
2022-12-08T11:12:46.533Z,55.74
2022-12-08T11:15:12.770Z,56.39
2022-12-08T11:17:39.006Z,56.17
2022-12-08T11:20:05.720Z,56.35
2022-12-08T11:22:32.362Z,56.46
2022-12-08T11:24:58.631Z,54.29
2022-12-08T11:27:24.872Z,55.32
2022-12-08T11:29:51.126Z,56.11
2022-12-08T11:32:17.393Z,55.68
2022-12-08T11:34:43.635Z,55.38
2022-12-08T11:37:09.881Z,55.00
2022-12-08T11:39:36.135Z,55.71
2022-12-08T11:42:02.394Z,55.27
2022-12-08T11:44:28.664Z,54.57
2022-12-08T11:46:54.913Z,55.46
2022-12-08T11:49:21.173Z,55.63
2022-12-08T11:51:47.414Z,55.83
2022-12-08T11:54:13.659Z,54.16
2022-12-08T11:56:39.899Z,55.93
2022-12-08T11:59:06.177Z,54.90
2022-12-08T12:01:32.444Z,55.13
2022-12-08T12:03:58.706Z,56.04
2022-12-08T12:06:46.464Z,56.60
2022-12-08T12:09:11.224Z,55.30
2022-12-08T12:11:37.474Z,55.34
2022-12-08T12:14:03.739Z,54.82
2022-12-08T12:16:30.104Z,55.17
2022-12-08T12:18:56.394Z,54.33
2022-12-08T12:21:22.644Z,54.07
2022-12-08T12:23:48.899Z,54.02
2022-12-08T12:26:15.162Z,54.60
2022-12-08T12:28:41.426Z,54.82
2022-12-08T12:31:07.732Z,56.15
2022-12-08T12:33:34.013Z,54.36
2022-12-08T12:36:00.247Z,55.55
2022-12-08T12:38:26.526Z,54.65
2022-12-08T12:40:52.769Z,54.34
2022-12-08T12:43:19.030Z,53.89
2022-12-08T12:45:45.333Z,54.82
2022-12-08T12:48:11.667Z,55.05
2022-12-08T12:50:37.926Z,54.87
2022-12-08T12:53:06.889Z,54.97
2022-12-08T12:55:36.993Z,54.49
2022-12-08T12:58:03.253Z,53.67
2022-12-08T13:00:29.515Z,54.52
2022-12-08T13:02:55.788Z,54.81
2022-12-08T13:05:22.159Z,54.30
2022-12-08T13:07:48.453Z,53.66
2022-12-08T13:10:14.742Z,55.11
2022-12-08T13:12:40.987Z,54.46
2022-12-08T13:15:07.331Z,55.62
2022-12-08T13:17:33.574Z,54.87
2022-12-08T13:19:59.833Z,53.76
2022-12-08T13:22:26.079Z,53.82
2022-12-08T13:24:52.339Z,54.02
2022-12-08T13:27:18.586Z,54.42
2022-12-08T13:29:44.849Z,54.10
2022-12-08T13:32:11.101Z,54.22
2022-12-08T13:34:37.362Z,53.93
2022-12-08T13:37:03.609Z,53.56
2022-12-08T13:39:29.866Z,54.33
2022-12-08T13:41:56.131Z,54.71
2022-12-08T13:58:13.547Z,53.91
2022-12-08T14:00:39.794Z,53.02
2022-12-08T14:03:06.104Z,54.34
2022-12-08T14:06:03.279Z,54.65
2022-12-08T14:08:42.925Z,53.74
2022-12-08T14:11:04.939Z,54.13
2022-12-08T14:13:31.206Z,54.45
2022-12-08T14:15:57.528Z,53.47
2022-12-08T14:18:23.843Z,54.29
2022-12-08T14:21:19.385Z,54.43
2022-12-08T14:23:36.337Z,54.39
2022-12-08T14:26:02.586Z,53.79
2022-12-08T14:28:28.848Z,53.63
2022-12-08T14:30:55.150Z,54.28
2022-12-08T14:33:21.450Z,53.96
2022-12-08T14:35:47.717Z,53.89
2022-12-08T14:38:14.136Z,54.35
2022-12-08T14:40:40.464Z,54.07
2022-12-08T14:43:06.718Z,54.47
2022-12-08T14:45:34.857Z,55.30
2022-12-08T14:48:01.373Z,55.09
2022-12-08T14:50:27.636Z,55.15
2022-12-08T14:52:53.906Z,55.75
2022-12-08T14:55:20.150Z,55.42
2022-12-08T14:57:46.425Z,54.78
2022-12-08T15:00:12.683Z,55.15
2022-12-08T15:02:38.952Z,54.69
2022-12-08T15:05:05.286Z,54.95
2022-12-08T15:07:31.593Z,55.86
2022-12-08T15:09:57.839Z,56.31
2022-12-08T15:12:26.997Z,56.66
2022-12-08T15:14:53.830Z,56.96
2022-12-08T15:17:20.089Z,57.16
2022-12-08T15:19:46.364Z,56.77
2022-12-08T15:22:12.610Z,57.35
2022-12-08T15:24:38.872Z,57.19
2022-12-08T15:27:05.136Z,57.22
2022-12-08T15:29:31.377Z,57.16
2022-12-08T15:31:57.695Z,57.07
2022-12-08T15:34:23.980Z,57.40
2022-12-08T15:36:50.222Z,57.33
2022-12-08T15:39:16.462Z,57.50
2022-12-08T15:41:42.717Z,57.94
2022-12-08T15:44:08.976Z,57.83
2022-12-08T15:46:35.264Z,57.74
2022-12-08T15:49:01.561Z,58.21
2022-12-08T15:51:27.826Z,58.03
2022-12-08T15:53:54.068Z,58.25
2022-12-08T15:56:27.315Z,58.34
2022-12-08T15:58:55.790Z,58.39
2022-12-08T16:01:23.123Z,58.27
2022-12-08T16:09:22.049Z,58.79
2022-12-08T16:12:06.063Z,59.01
2022-12-08T16:17:19.991Z,59.27
2022-12-08T16:19:46.235Z,59.07
2022-12-08T16:25:14.701Z,59.04
2022-12-08T16:28:01.210Z,59.33
2022-12-08T16:30:29.898Z,59.34
2022-12-08T16:32:56.147Z,59.05
2022-12-08T16:35:22.394Z,59.20
2022-12-08T16:37:48.687Z,59.54
2022-12-08T16:40:14.969Z,59.51
2022-12-08T16:42:41.228Z,59.53
2022-12-08T16:45:07.773Z,59.33
2022-12-08T16:47:34.236Z,59.31
2022-12-08T16:50:00.495Z,59.26
2022-12-08T16:52:26.738Z,59.39
2022-12-08T16:54:53.010Z,59.72
2022-12-08T16:57:19.269Z,59.63
2022-12-08T16:59:45.510Z,59.90
2022-12-08T17:02:16.308Z,59.91
2022-12-08T17:04:42.850Z,59.51
2022-12-08T17:07:09.151Z,59.73
2022-12-08T17:09:35.394Z,59.85
2022-12-08T17:12:04.038Z,60.23
2022-12-08T17:14:30.628Z,60.10
2022-12-08T17:16:56.921Z,60.31
2022-12-08T17:19:23.206Z,59.91
2022-12-08T17:21:49.462Z,60.22
2022-12-08T17:24:20.182Z,60.43
2022-12-08T17:26:48.107Z,60.62
2022-12-08T17:29:14.359Z,60.61
2022-12-08T17:31:40.650Z,60.44
2022-12-08T17:34:06.944Z,60.30
2022-12-08T17:36:33.209Z,60.42
2022-12-08T17:38:59.454Z,60.47
2022-12-08T17:41:25.706Z,60.83
2022-12-08T17:43:51.964Z,60.91
2022-12-08T17:46:18.340Z,61.03
2022-12-08T17:48:44.662Z,60.74
2022-12-08T17:51:10.918Z,61.15
2022-12-08T17:53:37.662Z,61.90
2022-12-08T17:56:04.029Z,62.07
2022-12-08T17:58:30.270Z,62.01
2022-12-08T18:00:56.566Z,61.90
2022-12-08T18:03:22.866Z,62.50
2022-12-08T18:05:49.109Z,62.66
2022-12-08T18:08:15.434Z,62.89
2022-12-08T18:10:41.719Z,62.54
2022-12-08T18:13:08.054Z,62.43
2022-12-08T18:15:38.970Z,62.55
2022-12-08T18:18:05.618Z,62.91
2022-12-08T18:20:31.880Z,63.02
2022-12-08T18:22:58.142Z,62.68
2022-12-08T18:25:24.389Z,62.04
2022-12-08T18:27:50.642Z,62.11
2022-12-08T18:30:16.891Z,62.29
2022-12-08T18:32:43.135Z,62.65
2022-12-08T18:35:09.396Z,62.58
2022-12-08T18:37:35.637Z,62.50
2022-12-08T18:40:01.994Z,62.01
2022-12-08T18:42:28.438Z,62.20
2022-12-08T18:44:54.707Z,62.47
2022-12-08T18:47:20.962Z,62.37
2022-12-08T18:49:47.205Z,62.39
2022-12-08T18:52:13.453Z,62.70
2022-12-08T18:57:25.958Z,62.27
2022-12-08T18:59:52.253Z,62.25
2022-12-08T19:02:18.617Z,62.07
2022-12-08T19:04:44.904Z,62.03
2022-12-08T19:07:11.165Z,62.23
2022-12-08T19:09:37.423Z,62.24
2022-12-08T19:12:03.673Z,61.89
2022-12-08T19:14:29.925Z,61.86
2022-12-08T19:16:56.176Z,61.74
2022-12-08T19:19:22.439Z,62.25
2022-12-08T19:21:48.723Z,62.11
2022-12-08T19:24:14.966Z,62.38
2022-12-08T19:26:41.210Z,61.96
2022-12-08T19:29:07.491Z,62.12
2022-12-08T19:31:33.844Z,61.83
2022-12-08T19:34:00.156Z,62.37
2022-12-08T19:36:26.409Z,62.08
2022-12-08T19:38:52.682Z,62.45
2022-12-08T19:41:18.938Z,62.18
2022-12-08T19:43:45.178Z,62.32
2022-12-08T19:46:11.617Z,62.11
2022-12-08T19:48:38.008Z,62.28
2022-12-08T19:51:04.270Z,62.05
2022-12-08T19:53:30.580Z,61.92
2022-12-08T19:55:56.945Z,62.59
2022-12-08T19:58:23.204Z,62.80
2022-12-08T20:00:49.464Z,62.71
2022-12-08T20:03:15.804Z,63.06
2022-12-08T20:05:42.117Z,62.56
2022-12-08T20:08:08.469Z,62.90
2022-12-08T20:10:34.777Z,62.28
2022-12-08T20:13:01.046Z,62.41
2022-12-08T20:15:27.325Z,62.19
2022-12-08T20:17:53.569Z,61.94
2022-12-08T20:20:19.829Z,62.65
2022-12-08T20:22:46.084Z,62.53
2022-12-08T20:25:13.249Z,62.48
2022-12-08T20:27:39.703Z,62.50
2022-12-08T20:30:05.981Z,62.15
2022-12-08T20:32:32.239Z,61.87
2022-12-08T20:34:58.520Z,61.47
2022-12-08T20:37:24.796Z,61.12
2022-12-08T20:39:51.086Z,61.15
2022-12-08T20:42:17.354Z,61.30
2022-12-08T20:44:43.607Z,61.03
2022-12-08T20:47:10.055Z,60.80
2022-12-08T20:49:36.496Z,60.56
2022-12-08T20:52:02.840Z,60.43
2022-12-08T20:54:29.231Z,60.39
2022-12-08T20:56:55.569Z,59.63
2022-12-08T20:59:21.964Z,59.86
2022-12-08T21:01:48.474Z,59.98
2022-12-08T21:04:14.994Z,60.35
2022-12-08T21:06:41.511Z,60.52
2022-12-08T21:09:07.851Z,60.58
2022-12-08T21:11:34.193Z,60.46
2022-12-08T21:14:00.634Z,60.61
2022-12-08T21:16:27.024Z,60.26
2022-12-08T21:18:53.341Z,60.11
2022-12-08T21:21:19.697Z,60.22
2022-12-08T21:23:46.246Z,60.72
2022-12-08T21:26:12.715Z,61.40
2022-12-08T21:28:39.109Z,61.91
2022-12-08T21:31:05.571Z,61.75
2022-12-08T21:33:32.135Z,62.02
2022-12-08T21:35:58.447Z,62.38
2022-12-08T21:38:24.697Z,61.51
2022-12-08T21:40:51.072Z,61.53
2022-12-08T21:43:17.456Z,61.98
2022-12-08T21:45:43.727Z,61.51
2022-12-08T21:48:11.982Z,61.56
2022-12-08T21:50:38.648Z,61.77
2022-12-08T21:53:04.987Z,61.04
2022-12-08T21:55:31.449Z,61.24
2022-12-08T21:57:57.854Z,61.90
2022-12-08T22:00:24.304Z,61.48
2022-12-08T22:02:50.811Z,61.14
2022-12-08T22:05:17.154Z,61.73
2022-12-08T22:07:43.749Z,61.46
2022-12-08T22:10:10.718Z,61.41
2022-12-08T22:12:37.486Z,61.33
2022-12-08T22:15:03.760Z,61.68
2022-12-08T22:17:30.416Z,61.67
2022-12-08T22:19:56.888Z,61.72
2022-12-08T22:22:23.126Z,62.12
2022-12-08T22:24:49.390Z,62.34
2022-12-08T22:27:15.754Z,62.57
2022-12-08T22:29:42.139Z,62.86
2022-12-08T22:32:08.694Z,63.06
2022-12-08T22:34:35.010Z,63.77
2022-12-08T22:37:01.251Z,62.94
2022-12-08T22:39:27.680Z,63.15
2022-12-08T22:41:53.916Z,63.05
2022-12-08T22:44:20.188Z,63.28
2022-12-08T22:46:46.627Z,63.42
2022-12-08T22:49:13.065Z,63.17
2022-12-08T22:51:39.480Z,63.42
2022-12-08T22:54:05.962Z,63.88
2022-12-08T22:56:32.270Z,63.82
2022-12-08T22:58:58.575Z,63.65
2022-12-08T23:01:24.872Z,63.70
2022-12-08T23:03:51.213Z,63.15
2022-12-08T23:06:17.920Z,62.85
2022-12-08T23:08:44.503Z,62.83
2022-12-08T23:11:10.942Z,62.37
2022-12-08T23:13:38.299Z,62.09
2022-12-08T23:16:04.701Z,62.76
2022-12-08T23:18:31.138Z,63.15
2022-12-08T23:20:57.387Z,63.24
2022-12-08T23:23:23.909Z,63.47
2022-12-08T23:25:50.190Z,63.83
2022-12-08T23:28:16.657Z,64.33
2022-12-08T23:30:43.096Z,64.74
2022-12-08T23:33:09.468Z,64.68
2022-12-08T23:35:35.998Z,64.43
2022-12-08T23:38:02.489Z,64.72
2022-12-08T23:40:28.856Z,64.97
2022-12-08T23:42:55.150Z,64.96
2022-12-08T23:45:21.640Z,64.82
2022-12-08T23:47:47.925Z,65.62
2022-12-08T23:50:14.185Z,65.92
2022-12-08T23:52:40.638Z,66.38
2022-12-08T23:55:06.941Z,65.91
2022-12-08T23:57:33.229Z,66.55
2022-12-08T23:59:59.480Z,66.62
